Terminal Aerodrome Forecast
Issued by NWS Buffalo, NY

Home | Current Version | Previous Version | Text Only | Print | Product List | Glossary On
Versions: 1 2 3 4 5 6 7 8 9 10 11 12 13 14 15 16 17 18 19 20 21 22 23 24 25 26 27 28 29
000
FTUS41 KBUF 302331
TAFBUF
TAF
KBUF 302331Z 0100/0124 21007KT P6SM SCT050 SCT250
     FM010300 19005KT P6SM VCSH OVC045
     FM010800 22008KT P6SM OVC030
     FM011100 23008KT P6SM VCSH BKN025
     FM011400 25013KT P6SM VCSH BKN050
     FM011700 25017G24KT P6SM SCT060
     FM012200 25013KT P6SM BKN045=

USA.gov is the U.S. government's official web portal to all federal, state and local government web resources and services.